Packwood, WA

9:57 PM PDT on September 17, 2014 (GMT -0700)
APRSWXNET Packwood WA US | Change Station
CLOSE
Current Station
Personal Weather Station
Location: Packwood, WA
Elevation: 1290 ft
Nearby Weather Stations
4.0 Earthquake: Seabeck, Washington (18 hours ago)  

Elev 1290 ft 46.61 °N, 121.66 °W | Updated 42 minutes ago

Mostly Cloudy
Mostly Cloudy
71 °F
Feels Like 74 °F
N
2
Wind Variable Wind from South
Gusts 6.0 mph

Today
High -- | Low -- °F
--% Chance of Precip.
Yesterday
High -- | Low -- °F
Precip. -- in
6:47 AM 7:14 PM
Waning Crescent, 30% visible
Pressure 29.77 in
Visibility 10.0 miles
Clouds Scattered Clouds 8500 ft
Mostly Cloudy 11000 ft
Heat Index 74 °F
Dew Point 62 °F
Humidity 72%
Rainfall -999.00 in
Snow Depth 0 in , 0 in , 0 in
UV 0 out of 12
Pollen 2.80 out of 12
Air Quality Not available.
Flu Activity Not available.
SPECI KTCM 180444Z AUTO 35003KT 10SM -RA SCT085 BKN110 18/15 A2977 RMK AO2

More Conditions Fewer Conditions

Pressure 29.77 in
Visibility 10.0 miles
Clouds Scattered Clouds 8500 ft
Mostly Cloudy 11000 ft
Heat Index 74 °F
Dew Point 62 °F
Humidity 72%
Rainfall -999.00 in
Snow Depth 0 in , 0 in , 0 in
UV 0 out of 12
Pollen 2.80 out of 12
Air Quality Not available.
Flu Activity Not available.
SPECI KTCM 180444Z AUTO 35003KT 10SM -RA SCT085 BKN110 18/15 A2977 RMK AO2

More Conditions Fewer Conditions

10-Day Weather Forecast

Almanac

Astronomy

Sep. 17, 2014 Rise Set
Actual Time 6:47 AM PDT 7:14 PM PDT
Civil Twilight 6:16 AM PDT 7:44 PM PDT
Nautical Twilight 5:40 AM PDT 8:20 PM PDT
Astronomical Twilight 5:03 AM PDT 8:57 PM PDT
Moon 12:36 AM PDT (9/17) 3:42 PM PDT (9/17)
Length of Visible Light 13h 27m
Length of Day
12h 26m
Tomorrow will be 3m 17s shorter.
Waning Crescent, 30% of the Moon is Illuminated
Sep 18
Waning Crescent
Sep 24
New
Oct 1
First Quarter
Oct 8
Full
Oct 15
Last Quarter

Yesterday's Extremes

State Highs State Lows

Community

WunderPhotos

Upload Photos

1,754,295 photos uploaded!

Nearby

Snow Depth

Station Depth Elevation
Surprise Lakes 0 in 4250 ft
Lone Pine 0 in 3800 ft
Grouse Camp 0 in 5380 ft
Harts Pass 0 in 6500 ft
Mf Nooksack 0 in 4980 ft

Earthquake Activity

City Distance Mag. Time & Date
Seabeck, Washington 89 miles 4.0 3:06 AM PDT
2014-09-17
Morton, Washington 39 miles 3.0 5:43 AM PDT
2014-09-16
Minimum magnitude displayed is 2.5.

Coastal Water Temperatures

Place Temperature
No Stations Reporting

Nearby Weather Stations